createdAt,value
2017-07-09T00:00:50.032Z,79.60
2017-07-09T00:03:18.409Z,80.00
2017-07-09T00:05:45.846Z,79.90
2017-07-09T00:08:13.302Z,80.30
2017-07-09T00:10:40.742Z,80.70
2017-07-09T00:13:08.179Z,81.20
2017-07-09T00:15:35.617Z,80.90
2017-07-09T00:18:03.069Z,80.90
2017-07-09T00:20:30.507Z,81.80
2017-07-09T00:22:57.942Z,81.30
2017-07-09T00:25:25.390Z,80.90
2017-07-09T00:27:52.822Z,81.00
2017-07-09T00:30:20.275Z,81.30
2017-07-09T00:32:47.712Z,80.90
2017-07-09T00:35:15.151Z,81.20
2017-07-09T00:37:42.598Z,81.30
2017-07-09T00:40:10.038Z,81.40
2017-07-09T00:42:37.486Z,81.60
2017-07-09T00:45:04.921Z,81.60
2017-07-09T00:47:32.377Z,82.50
2017-07-09T00:49:59.818Z,82.50
2017-07-09T00:52:27.257Z,82.80
2017-07-09T00:54:54.706Z,82.70
2017-07-09T00:57:22.143Z,82.90
2017-07-09T00:59:49.594Z,83.10
2017-07-09T01:02:17.033Z,83.40
2017-07-09T01:04:44.474Z,82.90
2017-07-09T01:07:11.913Z,83.20
2017-07-09T01:09:39.368Z,83.60
2017-07-09T01:12:06.835Z,83.50
2017-07-09T01:14:34.263Z,83.30
2017-07-09T01:17:01.705Z,83.70
2017-07-09T01:19:29.150Z,83.70
2017-07-09T01:21:57.365Z,84.30
2017-07-09T01:24:24.815Z,83.40
2017-07-09T01:26:52.257Z,83.90
2017-07-09T01:29:19.696Z,84.20
2017-07-09T01:31:47.150Z,83.60
2017-07-09T01:34:14.586Z,84.00
2017-07-09T01:36:42.035Z,83.80
2017-07-09T01:39:09.486Z,84.30
2017-07-09T01:41:36.931Z,83.90
2017-07-09T01:44:04.374Z,84.60
2017-07-09T01:46:31.829Z,84.70
2017-07-09T01:48:59.262Z,84.30
2017-07-09T01:51:26.699Z,84.60
2017-07-09T01:53:54.901Z,85.80
2017-07-09T01:56:22.356Z,85.40
2017-07-09T01:58:49.793Z,85.40
2017-07-09T02:01:17.253Z,85.50
2017-07-09T02:03:44.690Z,85.10
2017-07-09T02:06:12.141Z,85.50
2017-07-09T02:08:39.573Z,85.30
2017-07-09T02:11:07.014Z,84.90
2017-07-09T02:13:34.459Z,84.90
2017-07-09T02:16:01.901Z,84.70
2017-07-09T02:18:29.350Z,85.10
2017-07-09T02:20:56.789Z,84.90
2017-07-09T02:23:24.246Z,85.50
2017-07-09T02:25:52.453Z,84.80
2017-07-09T02:28:19.893Z,85.10
2017-07-09T02:30:47.341Z,84.80
2017-07-09T02:33:14.781Z,84.70
2017-07-09T02:35:42.226Z,84.80
2017-07-09T02:38:09.665Z,85.30
2017-07-09T02:40:37.104Z,85.30
2017-07-09T02:43:04.547Z,85.40
2017-07-09T02:45:32.005Z,85.30
2017-07-09T02:47:59.447Z,85.50
2017-07-09T02:50:26.885Z,85.60
2017-07-09T02:52:54.331Z,86.10
2017-07-09T02:55:21.766Z,86.00
2017-07-09T02:57:49.213Z,85.90
2017-07-09T03:00:16.654Z,85.70
2017-07-09T03:02:44.106Z,85.50
2017-07-09T03:05:11.551Z,85.70
2017-07-09T03:07:38.985Z,85.60
2017-07-09T03:10:06.430Z,85.50
2017-07-09T03:12:33.877Z,85.90
2017-07-09T03:15:01.318Z,85.40
2017-07-09T03:17:28.768Z,85.50
2017-07-09T03:19:56.201Z,85.40
2017-07-09T03:22:23.691Z,85.40
2017-07-09T03:24:51.133Z,85.30
2017-07-09T03:27:18.579Z,85.50
2017-07-09T03:29:46.031Z,85.20
2017-07-09T03:32:13.465Z,84.80
2017-07-09T03:34:40.923Z,84.60
2017-07-09T03:37:08.386Z,84.40
2017-07-09T03:39:35.826Z,84.10
2017-07-09T03:42:03.267Z,83.90
2017-07-09T03:44:30.705Z,83.90
2017-07-09T03:46:58.158Z,83.60
2017-07-09T03:49:26.361Z,84.50
2017-07-09T03:51:53.810Z,84.50
2017-07-09T03:54:21.246Z,84.50
2017-07-09T03:56:48.686Z,84.60
2017-07-09T03:59:16.133Z,84.70
2017-07-09T04:01:43.578Z,84.80
2017-07-09T04:04:11.023Z,84.50
2017-07-09T04:06:38.457Z,84.60
2017-07-09T04:09:05.897Z,84.50
2017-07-09T04:11:33.356Z,84.80
2017-07-09T04:14:00.821Z,85.00
2017-07-09T04:16:28.249Z,85.50
2017-07-09T04:18:55.685Z,85.40
2017-07-09T04:21:23.130Z,85.90
2017-07-09T04:23:50.574Z,85.80
2017-07-09T04:26:18.023Z,85.60
2017-07-09T04:28:45.462Z,85.90
2017-07-09T04:31:12.905Z,85.70
2017-07-09T04:33:40.352Z,86.20
2017-07-09T04:36:07.804Z,86.20
2017-07-09T04:38:35.240Z,85.80
2017-07-09T04:41:02.677Z,85.80
2017-07-09T04:43:30.890Z,86.00
2017-07-09T04:45:58.326Z,86.00
2017-07-09T04:48:25.774Z,85.70
2017-07-09T04:50:53.210Z,85.50
2017-07-09T04:53:20.666Z,85.40
2017-07-09T04:55:48.106Z,85.20
2017-07-09T04:58:15.554Z,85.10
2017-07-09T05:00:42.991Z,84.90
2017-07-09T05:03:10.432Z,84.60
2017-07-09T05:05:37.877Z,84.50
2017-07-09T05:08:05.319Z,85.00
2017-07-09T05:10:32.766Z,84.80
2017-07-09T05:13:00.204Z,84.60
2017-07-09T05:15:27.645Z,84.60
2017-07-09T05:17:55.090Z,84.30
2017-07-09T05:20:22.547Z,84.40
2017-07-09T05:22:49.982Z,84.40
2017-07-09T05:25:17.425Z,84.40
2017-07-09T05:27:44.874Z,84.50
2017-07-09T05:30:12.314Z,84.40
2017-07-09T05:32:40.525Z,84.90
2017-07-09T05:35:07.969Z,84.80
2017-07-09T05:37:35.422Z,84.90
2017-07-09T05:40:02.852Z,85.30
2017-07-09T05:42:30.307Z,84.70
2017-07-09T05:44:57.743Z,84.80
2017-07-09T05:47:25.176Z,84.80
2017-07-09T05:49:52.622Z,84.60
2017-07-09T05:52:20.061Z,84.30
2017-07-09T05:54:47.507Z,83.80
2017-07-09T05:57:14.955Z,83.80
2017-07-09T05:59:42.401Z,83.60
2017-07-09T06:02:09.851Z,84.00
2017-07-09T06:04:37.297Z,83.00
2017-07-09T06:07:04.729Z,83.00
2017-07-09T06:09:32.170Z,83.00
2017-07-09T06:11:59.610Z,82.70
2017-07-09T06:14:27.053Z,82.60
2017-07-09T06:16:54.493Z,82.80
2017-07-09T06:19:21.946Z,83.10
2017-07-09T06:21:49.395Z,82.90
2017-07-09T06:24:17.602Z,82.60
2017-07-09T06:26:45.042Z,82.60
2017-07-09T06:29:12.485Z,82.70
2017-07-09T06:31:39.926Z,82.30
2017-07-09T06:34:07.369Z,82.00
2017-07-09T06:36:34.810Z,82.20
2017-07-09T06:39:02.258Z,82.00
2017-07-09T06:41:29.694Z,81.40
2017-07-09T06:43:57.134Z,81.30
2017-07-09T06:46:24.587Z,81.80
2017-07-09T06:48:52.019Z,81.10
2017-07-09T06:51:19.461Z,81.70
2017-07-09T06:53:46.901Z,80.90
2017-07-09T06:56:14.348Z,80.40
2017-07-09T06:58:41.782Z,80.00
2017-07-09T07:01:09.229Z,80.40
2017-07-09T07:03:36.668Z,80.10
2017-07-09T07:06:04.093Z,79.70
2017-07-09T07:08:31.536Z,79.80
2017-07-09T07:10:58.961Z,79.50
2017-07-09T07:13:26.408Z,79.30
2017-07-09T07:15:53.842Z,79.10
2017-07-09T07:18:21.286Z,78.70
2017-07-09T07:20:48.721Z,78.30
2017-07-09T07:23:16.177Z,77.70
2017-07-09T07:25:43.613Z,77.70
2017-07-09T07:28:11.051Z,77.10
2017-07-09T07:30:38.484Z,76.70
2017-07-09T07:33:05.921Z,76.10
2017-07-09T07:35:33.369Z,76.30
2017-07-09T07:38:00.805Z,76.20
2017-07-09T07:40:28.247Z,76.10
2017-07-09T07:42:55.685Z,76.10
2017-07-09T07:45:23.121Z,76.30
2017-07-09T07:47:50.561Z,76.20
2017-07-09T07:50:17.993Z,76.10
2017-07-09T07:52:46.198Z,75.80
2017-07-09T07:55:13.631Z,75.70
2017-07-09T07:57:41.073Z,75.60
2017-07-09T08:00:08.525Z,75.30
2017-07-09T08:02:35.962Z,74.90
2017-07-09T08:05:03.397Z,74.70
2017-07-09T08:07:30.851Z,74.70
2017-07-09T08:09:58.286Z,74.70
2017-07-09T08:12:25.720Z,74.10
2017-07-09T08:14:53.161Z,73.60
2017-07-09T08:17:20.592Z,74.00
2017-07-09T08:19:48.045Z,73.50
2017-07-09T08:22:15.476Z,73.00
2017-07-09T08:24:42.917Z,72.60
2017-07-09T08:27:10.352Z,73.00
2017-07-09T08:29:37.785Z,72.10
2017-07-09T08:32:05.234Z,71.90
2017-07-09T08:34:32.669Z,72.20
2017-07-09T08:37:00.113Z,71.80
2017-07-09T08:39:27.545Z,71.60
2017-07-09T08:41:54.982Z,71.70
2017-07-09T08:44:22.422Z,71.60
2017-07-09T08:46:49.859Z,70.40
2017-07-09T08:49:17.306Z,70.40
2017-07-09T08:51:44.738Z,69.70
2017-07-09T08:54:12.966Z,67.50
2017-07-09T08:56:40.389Z,67.40
2017-07-09T08:59:07.823Z,67.90
2017-07-09T09:01:35.262Z,67.30
2017-07-09T09:04:02.702Z,67.50
2017-07-09T09:06:30.144Z,67.30
2017-07-09T09:08:57.580Z,66.70
2017-07-09T09:11:25.014Z,65.60
2017-07-09T09:13:52.462Z,66.90
2017-07-09T09:16:19.898Z,67.50
2017-07-09T09:18:47.343Z,67.80
2017-07-09T09:21:14.787Z,68.20
2017-07-09T09:23:42.226Z,68.20
2017-07-09T09:26:09.830Z,68.90
2017-07-09T09:28:37.278Z,68.90
2017-07-09T09:31:04.716Z,69.00
2017-07-09T09:33:32.150Z,68.50
2017-07-09T09:36:00.358Z,67.10
2017-07-09T09:38:27.794Z,67.20
2017-07-09T09:40:55.221Z,66.80
2017-07-09T09:43:22.674Z,66.00
2017-07-09T09:45:50.105Z,65.50
2017-07-09T09:48:17.550Z,65.20
2017-07-09T09:50:44.994Z,63.90
2017-07-09T09:53:12.453Z,64.20
2017-07-09T09:55:39.890Z,63.70
2017-07-09T09:58:07.330Z,63.60
2017-07-09T10:00:34.769Z,63.00
2017-07-09T10:03:02.208Z,63.40
2017-07-09T10:05:29.704Z,63.40
2017-07-09T10:07:57.086Z,61.70
2017-07-09T10:10:24.537Z,62.30
2017-07-09T10:12:51.981Z,61.10
2017-07-09T10:15:19.426Z,61.80
2017-07-09T10:17:46.866Z,61.60
2017-07-09T10:20:14.314Z,61.30
2017-07-09T10:22:41.754Z,60.80
2017-07-09T10:25:09.192Z,59.70
2017-07-09T10:27:36.648Z,59.80
2017-07-09T10:30:04.087Z,59.60
2017-07-09T10:32:31.518Z,58.70
2017-07-09T10:34:58.954Z,57.20
2017-07-09T10:37:26.389Z,57.20
2017-07-09T10:39:53.829Z,57.80
2017-07-09T10:42:21.267Z,57.30
2017-07-09T10:44:49.005Z,57.20
2017-07-09T10:47:16.438Z,55.60
2017-07-09T10:49:43.895Z,55.90
2017-07-09T10:52:11.333Z,54.30
2017-07-09T10:54:38.764Z,53.60
2017-07-09T10:57:06.219Z,54.70
2017-07-09T10:59:33.663Z,54.80
2017-07-09T11:02:01.103Z,54.90
2017-07-09T11:04:28.531Z,55.20
2017-07-09T11:06:55.983Z,55.40
2017-07-09T11:09:23.422Z,53.20
2017-07-09T11:11:50.877Z,50.90
2017-07-09T11:14:18.310Z,49.00
2017-07-09T11:16:45.746Z,49.70
2017-07-09T11:19:13.186Z,46.00
2017-07-09T11:21:40.627Z,45.80
2017-07-09T11:24:08.065Z,44.70
2017-07-09T11:26:35.502Z,43.40
2017-07-09T11:29:02.945Z,43.20
2017-07-09T11:31:30.377Z,43.10
2017-07-09T11:33:57.817Z,44.50
2017-07-09T11:36:25.253Z,46.00
2017-07-09T11:38:52.697Z,46.70
2017-07-09T11:41:20.142Z,46.40
2017-07-09T11:43:47.569Z,43.90
2017-07-09T11:46:15.013Z,44.70
2017-07-09T11:48:42.447Z,45.10
2017-07-09T11:51:09.890Z,44.50
2017-07-09T11:53:37.326Z,43.00
2017-07-09T11:56:04.770Z,41.20
2017-07-09T11:58:32.201Z,39.30
2017-07-09T12:00:59.647Z,38.10
2017-07-09T12:03:27.087Z,35.90
2017-07-09T12:05:54.522Z,37.00
2017-07-09T12:08:21.961Z,38.40
2017-07-09T12:10:49.409Z,38.20
2017-07-09T12:13:16.855Z,38.10
2017-07-09T12:15:44.291Z,37.50
2017-07-09T12:18:11.746Z,34.70
2017-07-09T12:20:39.186Z,36.30
2017-07-09T12:23:06.612Z,35.00
2017-07-09T12:25:34.053Z,34.40
2017-07-09T12:28:01.524Z,34.90
2017-07-09T12:30:28.970Z,34.10
2017-07-09T12:32:56.405Z,32.20
2017-07-09T12:35:23.849Z,33.60
2017-07-09T12:37:51.284Z,32.70
2017-07-09T12:40:18.730Z,31.80
2017-07-09T12:42:46.166Z,31.00
2017-07-09T12:45:13.607Z,29.70
2017-07-09T12:47:41.045Z,30.40
2017-07-09T12:50:08.496Z,29.90
2017-07-09T12:52:35.940Z,29.00
2017-07-09T12:55:03.378Z,29.00
2017-07-09T12:57:30.813Z,29.30
2017-07-09T12:59:58.252Z,29.00
2017-07-09T13:02:25.704Z,29.10
2017-07-09T13:04:53.133Z,29.40
2017-07-09T13:07:20.570Z,29.00
2017-07-09T13:09:48.010Z,28.30
2017-07-09T13:12:15.450Z,28.10
2017-07-09T13:14:42.889Z,27.30
2017-07-09T13:17:10.312Z,26.80
2017-07-09T13:19:37.748Z,27.60
2017-07-09T13:22:05.182Z,27.50
2017-07-09T13:24:32.641Z,27.80
2017-07-09T13:27:00.064Z,27.40
2017-07-09T13:29:27.501Z,27.80
2017-07-09T13:31:54.937Z,27.20
2017-07-09T13:34:22.394Z,27.60
2017-07-09T13:36:49.824Z,28.50
2017-07-09T13:39:17.257Z,28.60
2017-07-09T13:41:44.704Z,29.10
2017-07-09T13:44:12.139Z,29.20
2017-07-09T13:46:40.349Z,28.70
2017-07-09T13:49:07.785Z,28.60
2017-07-09T13:51:35.231Z,28.50
2017-07-09T13:54:02.673Z,28.90
2017-07-09T13:56:30.114Z,29.00
2017-07-09T13:58:57.555Z,29.30
2017-07-09T14:01:24.984Z,29.10
2017-07-09T14:03:52.417Z,28.70
2017-07-09T14:06:19.858Z,29.20
2017-07-09T14:08:47.314Z,29.50
2017-07-09T14:11:14.741Z,29.60
2017-07-09T14:13:42.186Z,29.90
2017-07-09T14:16:09.622Z,30.00
2017-07-09T14:18:37.070Z,30.20
2017-07-09T14:21:04.514Z,30.70
2017-07-09T14:23:31.953Z,31.00
2017-07-09T14:25:59.387Z,31.10
2017-07-09T14:28:26.841Z,31.20
2017-07-09T14:30:54.273Z,31.00
2017-07-09T14:33:21.706Z,30.40
2017-07-09T14:35:49.945Z,30.00
2017-07-09T14:38:17.385Z,29.90
2017-07-09T14:40:44.830Z,29.80
2017-07-09T14:43:12.272Z,30.00
2017-07-09T14:45:39.711Z,31.10
2017-07-09T14:48:07.149Z,31.70
2017-07-09T14:50:34.596Z,31.10
2017-07-09T14:53:02.034Z,31.20
2017-07-09T14:55:29.491Z,30.90
2017-07-09T14:57:56.920Z,30.00
2017-07-09T15:00:24.362Z,30.00
2017-07-09T15:02:51.810Z,29.80
2017-07-09T15:05:19.245Z,29.80
2017-07-09T15:07:46.691Z,29.30
2017-07-09T15:10:14.125Z,29.10
2017-07-09T15:12:41.567Z,29.10
2017-07-09T15:15:09.003Z,29.20
2017-07-09T15:17:36.450Z,29.20
2017-07-09T15:20:03.878Z,29.40
2017-07-09T15:22:31.330Z,29.60
2017-07-09T15:24:58.765Z,29.70
2017-07-09T15:27:26.194Z,29.50
2017-07-09T15:29:53.643Z,29.90
2017-07-09T15:32:21.070Z,30.70
2017-07-09T15:34:49.281Z,31.40
2017-07-09T15:37:16.725Z,31.40
2017-07-09T15:39:44.173Z,32.20
2017-07-09T15:42:11.606Z,32.80
2017-07-09T15:44:39.098Z,33.30
2017-07-09T15:47:06.529Z,33.50
2017-07-09T15:49:34.750Z,34.20
2017-07-09T15:52:02.184Z,34.20
2017-07-09T15:54:29.618Z,34.50
2017-07-09T15:56:57.074Z,34.90
2017-07-09T15:59:24.510Z,35.70
2017-07-09T16:01:51.956Z,35.60
2017-07-09T16:04:19.410Z,35.40
2017-07-09T16:06:46.853Z,35.10
2017-07-09T16:09:14.290Z,34.70
2017-07-09T16:11:41.736Z,34.80
2017-07-09T16:14:09.172Z,34.80
2017-07-09T16:16:36.601Z,34.80
2017-07-09T16:19:04.040Z,35.00
2017-07-09T16:21:31.473Z,35.60
2017-07-09T16:23:58.916Z,36.20
2017-07-09T16:26:26.356Z,36.70
2017-07-09T16:43:20.022Z,38.80
2017-07-09T16:45:47.489Z,38.80
2017-07-09T16:48:14.954Z,39.20
2017-07-09T16:50:53.371Z,40.10
2017-07-09T16:53:21.600Z,40.10
2017-07-09T16:55:49.061Z,40.10
2017-07-09T16:58:16.526Z,40.10
2017-07-09T17:00:43.986Z,40.50
2017-07-09T17:03:11.438Z,41.10
2017-07-09T17:05:38.902Z,40.70
2017-07-09T17:08:06.361Z,40.90
2017-07-09T17:10:33.825Z,41.10
2017-07-09T17:13:01.291Z,41.30
2017-07-09T17:15:28.762Z,41.40
2017-07-09T17:17:56.986Z,41.90
2017-07-09T17:20:24.463Z,41.60
2017-07-09T17:22:51.917Z,41.90
2017-07-09T17:25:19.376Z,42.00
2017-07-09T17:27:46.834Z,42.00
2017-07-09T17:30:14.300Z,42.20
2017-07-09T17:32:41.758Z,42.30
2017-07-09T17:35:09.235Z,42.50
2017-07-09T17:37:36.706Z,42.60
2017-07-09T17:40:04.932Z,43.80
2017-07-09T17:42:32.390Z,43.40
2017-07-09T17:44:59.857Z,43.40
2017-07-09T17:47:27.319Z,43.70
2017-07-09T17:49:54.790Z,43.80
2017-07-09T17:52:22.317Z,43.80
2017-07-09T17:54:49.782Z,44.20
2017-07-09T17:57:17.242Z,44.40
2017-07-09T17:59:44.694Z,44.00
2017-07-09T18:02:12.204Z,44.20
2017-07-09T18:04:40.442Z,44.40
2017-07-09T18:07:07.919Z,44.40
2017-07-09T18:09:35.390Z,44.50
2017-07-09T18:12:02.849Z,44.40
2017-07-09T18:14:30.322Z,44.70
2017-07-09T18:16:58.557Z,44.70
2017-07-09T18:19:26.019Z,44.70
2017-07-09T18:21:53.469Z,44.80
2017-07-09T18:24:20.936Z,44.70
2017-07-09T18:26:48.386Z,44.70
2017-07-09T18:29:15.861Z,44.60
2017-07-09T18:31:43.319Z,44.30
2017-07-09T18:34:10.791Z,43.90
2017-07-09T18:36:38.251Z,43.20
2017-07-09T18:39:05.759Z,43.50
2017-07-09T18:41:33.219Z,43.50
2017-07-09T18:44:00.676Z,43.80
2017-07-09T18:46:28.138Z,44.00
2017-07-09T18:48:55.596Z,44.30
2017-07-09T18:51:23.067Z,44.30
2017-07-09T18:53:50.530Z,44.80
2017-07-09T18:56:18.068Z,45.00
2017-07-09T18:58:45.510Z,45.40
2017-07-09T19:01:13.032Z,45.70
2017-07-09T19:03:40.486Z,45.90
2017-07-09T19:06:09.569Z,46.30
2017-07-09T19:08:39.684Z,46.50
2017-07-09T19:11:07.402Z,47.20
2017-07-09T19:13:39.604Z,47.40
2017-07-09T19:16:10.826Z,47.30
2017-07-09T19:18:41.931Z,47.50
2017-07-09T19:21:15.907Z,48.00
2017-07-09T19:23:52.402Z,48.10
2017-07-09T19:26:25.522Z,48.90
2017-07-09T19:29:00.584Z,49.80
2017-07-09T19:31:33.458Z,49.80
2017-07-09T19:34:06.248Z,50.30
2017-07-09T19:36:36.302Z,50.20
2017-07-09T19:41:58.782Z,51.40
2017-07-09T19:44:28.783Z,52.00
2017-07-09T19:46:59.926Z,52.30
2017-07-09T19:49:30.629Z,52.60
2017-07-09T19:52:00.572Z,52.70
2017-07-09T19:54:33.378Z,52.80
2017-07-09T19:57:03.474Z,52.50
2017-07-09T19:59:33.388Z,52.70
2017-07-09T20:02:04.912Z,53.10
2017-07-09T20:04:34.721Z,53.20
2017-07-09T20:25:24.653Z,55.50
2017-07-09T20:28:08.799Z,55.80
2017-07-09T20:30:42.913Z,56.30
2017-07-09T20:33:29.281Z,57.10
2017-07-09T20:55:40.305Z,61.90
2017-07-09T21:01:08.783Z,61.60
2017-07-09T21:04:07.587Z,62.60
2017-07-09T21:15:37.493Z,62.40
2017-07-09T21:21:10.138Z,62.80
2017-07-09T21:23:53.181Z,62.70
2017-07-09T21:32:33.394Z,63.90
2017-07-09T21:35:11.257Z,64.30
2017-07-09T21:40:42.245Z,64.20
2017-07-09T21:43:18.097Z,64.20
2017-07-09T21:48:45.744Z,65.30
2017-07-09T21:51:25.137Z,65.50
2017-07-09T21:57:11.432Z,65.60
2017-07-09T22:00:11.427Z,65.80
2017-07-09T22:02:53.877Z,66.40
2017-07-09T22:08:40.194Z,66.60
2017-07-09T22:11:18.709Z,67.10
2017-07-09T22:16:39.006Z,67.00
2017-07-09T22:19:18.849Z,67.40
2017-07-09T22:21:59.398Z,67.50
2017-07-09T22:27:36.015Z,67.30
2017-07-09T22:30:15.235Z,68.40
2017-07-09T22:32:56.702Z,68.10
2017-07-09T22:35:32.060Z,68.90
2017-07-09T22:49:46.579Z,66.60
2017-07-09T22:52:23.558Z,66.10
2017-07-09T22:55:02.102Z,66.00
2017-07-09T23:00:33.328Z,67.90
2017-07-09T23:03:09.631Z,68.80
2017-07-09T23:10:56.110Z,71.60
2017-07-09T23:13:31.084Z,74.60
2017-07-09T23:16:01.202Z,74.60
2017-07-09T23:18:36.346Z,74.90
2017-07-09T23:21:07.584Z,76.00
2017-07-09T23:23:45.010Z,78.40
2017-07-09T23:26:27.688Z,79.20
2017-07-09T23:29:05.623Z,80.60
2017-07-09T23:31:45.949Z,82.10
2017-07-09T23:37:26.635Z,86.30
2017-07-09T23:40:10.092Z,86.30
2017-07-09T23:45:44.739Z,85.10
2017-07-09T23:48:18.229Z,85.90
2017-07-09T23:51:09.521Z,85.80
2017-07-09T23:53:44.985Z,86.60
2017-07-09T23:56:16.933Z,87.50
2017-07-09T23:58:54.453Z,87.60
